This is the latest recevied weather packets stored in our database for station/object VK3CG. If no packets are shown the sender has not sent any weather packets the latest 10 day(s).
| Time | Temp. | Humidity | Pressure | Rain* | Wind** | Luminosity | Snow |
|---|---|---|---|---|---|---|---|
| 1777273242 | 17.22° C | 54% | 1035.1 hPa | 0 mm | - | 18 W/m² | - |
| 1777272345 | 17.78° C | 54% | 1034.9 hPa | 0 mm | - | 35 W/m² | - |
| 1777271442 | 17.78° C | 53% | 1034.9 hPa | 0 mm | - | 42 W/m² | - |
| 1777270547 | 18.33° C | 52% | 1034.7 hPa | 0 mm | - | 111 W/m² | - |
| 1777269641 | 18.89° C | 51% | 1034.7 hPa | 0 mm | - | 74 W/m² | - |
| 1777268739 | 19.44° C | 50% | 1034.6 hPa | 0 mm | - | 88 W/m² | - |
| 1777267839 | 19.44° C | 50% | 1034.7 hPa | 0 mm | - | 316 W/m² | - |
| 1777266937 | 20° C | 48% | 1034.5 hPa | 0 mm | - | 95 W/m² | - |
| 1777266038 | 20.56° C | 47% | 1034.5 hPa | 0 mm | - | 104 W/m² | - |
| 1777265136 | 22.78° C | 40% | 1034.4 hPa | 0 mm | - | 359 W/m² | - |
| 1777264239 | 22.78° C | 38% | 1034.3 hPa | 0 mm | - | 271 W/m² | - |
| 1777263337 | 22.22° C | 41% | 1034.3 hPa | 0 mm | - | 547 W/m² | - |
| 1777262433 | 22.22° C | 42% | 1034.2 hPa | 0 mm | - | 541 W/m² | - |
| 1777261538 | 22.22° C | 44% | 1034.4 hPa | 0 mm | - | 559 W/m² | - |
| 1777260634 | 21.67° C | 45% | 1034.4 hPa | 0 mm | - | 577 W/m² | - |
| 1777259737 | 21.11° C | 46% | 1034.6 hPa | 0 mm | - | 587 W/m² | - |
| 1777258826 | 21.11° C | 46% | 1034.7 hPa | 0 mm | - | 599 W/m² | - |
| 1777257924 | 21.11° C | 47% | 1035.1 hPa | 0 mm | - | 608 W/m² | - |
| 1777257020 | 20.56° C | 49% | 1035.3 hPa | 0 mm | - | 608 W/m² | - |
| 1777256127 | 20° C | 50% | 1035.6 hPa | 0 mm | - | 612 W/m² | - |
| 1777255218 | 20° C | 52% | 1035.8 hPa | 0 mm | - | 610 W/m² | - |
| 1777254325 | 18.89° C | 53% | 1035.9 hPa | 0 mm | - | 606 W/m² | - |
| 1777253409 | 18.33° C | 56% | 1036 hPa | 0 mm | - | 596 W/m² | - |
| 1777252505 | 17.22° C | 59% | 1036.1 hPa | 0 mm | - | 584 W/m² | - |
| 1777251602 | 16.67° C | 62% | 1036.2 hPa | 0 mm | - | 568 W/m² | - |
* Rain latest hour (hover to see other rain measurements)
** Current wind speed in m/s (hover to see current wind gust speed)